sensor_id;sensor_type;location;lat;lon;timestamp;P1;durP1;ratioP1;P2;durP2;ratioP2
16075;SDS011;8142;48.242;11.644;2023-08-06T00:00:38;5.80;;;5.10;;
16075;SDS011;8142;48.242;11.644;2023-08-06T00:03:04;5.30;;;4.77;;
16075;SDS011;8142;48.242;11.644;2023-08-06T00:05:30;5.03;;;4.37;;
16075;SDS011;8142;48.242;11.644;2023-08-06T00:07:56;5.07;;;4.60;;
16075;SDS011;8142;48.242;11.644;2023-08-06T00:10:22;5.50;;;4.23;;
16075;SDS011;8142;48.242;11.644;2023-08-06T00:12:48;5.10;;;4.40;;
16075;SDS011;8142;48.242;11.644;2023-08-06T00:15:14;5.63;;;4.20;;
16075;SDS011;8142;48.242;11.644;2023-08-06T00:17:40;4.40;;;4.00;;
16075;SDS011;8142;48.242;11.644;2023-08-06T00:20:06;4.30;;;3.90;;
16075;SDS011;8142;48.242;11.644;2023-08-06T00:22:36;5.77;;;4.13;;
16075;SDS011;8142;48.242;11.644;2023-08-06T00:25:03;4.97;;;3.63;;
16075;SDS011;8142;48.242;11.644;2023-08-06T00:27:30;3.90;;;3.50;;
16075;SDS011;8142;48.242;11.644;2023-08-06T00:29:55;5.20;;;4.43;;
16075;SDS011;8142;48.242;11.644;2023-08-06T00:32:21;4.10;;;3.70;;
16075;SDS011;8142;48.242;11.644;2023-08-06T00:34:47;4.63;;;4.10;;
16075;SDS011;8142;48.242;11.644;2023-08-06T00:37:17;4.23;;;3.83;;
16075;SDS011;8142;48.242;11.644;2023-08-06T00:39:43;3.80;;;3.50;;
16075;SDS011;8142;48.242;11.644;2023-08-06T00:42:10;4.27;;;3.87;;
16075;SDS011;8142;48.242;11.644;2023-08-06T00:44:36;4.73;;;3.90;;
16075;SDS011;8142;48.242;11.644;2023-08-06T00:47:03;3.80;;;3.40;;
16075;SDS011;8142;48.242;11.644;2023-08-06T00:49:29;4.07;;;3.30;;
16075;SDS011;8142;48.242;11.644;2023-08-06T00:51:55;3.33;;;3.03;;
16075;SDS011;8142;48.242;11.644;2023-08-06T00:54:22;3.33;;;2.90;;
16075;SDS011;8142;48.242;11.644;2023-08-06T00:56:49;3.50;;;3.07;;
16075;SDS011;8142;48.242;11.644;2023-08-06T00:59:15;3.60;;;2.80;;
16075;SDS011;8142;48.242;11.644;2023-08-06T01:01:40;3.23;;;2.93;;
16075;SDS011;8142;48.242;11.644;2023-08-06T01:04:06;4.73;;;3.00;;
16075;SDS011;8142;48.242;11.644;2023-08-06T01:09:03;3.20;;;2.90;;
16075;SDS011;8142;48.242;11.644;2023-08-06T01:12:11;3.13;;;2.80;;
16075;SDS011;8142;48.242;11.644;2023-08-06T01:14:58;2.90;;;2.60;;
16075;SDS011;8142;48.242;11.644;2023-08-06T01:17:32;3.33;;;3.00;;
16075;SDS011;8142;48.242;11.644;2023-08-06T01:20:00;2.93;;;2.70;;
16075;SDS011;8142;48.242;11.644;2023-08-06T01:22:26;2.80;;;2.60;;
16075;SDS011;8142;48.242;11.644;2023-08-06T01:24:53;3.07;;;2.77;;
16075;SDS011;8142;48.242;11.644;2023-08-06T01:30:27;3.03;;;2.73;;
16075;SDS011;8142;48.242;11.644;2023-08-06T01:32:58;3.50;;;2.80;;
16075;SDS011;8142;48.242;11.644;2023-08-06T01:35:27;3.40;;;3.10;;
16075;SDS011;8142;48.242;11.644;2023-08-06T01:37:55;5.23;;;3.10;;
16075;SDS011;8142;48.242;11.644;2023-08-06T01:40:21;3.60;;;3.20;;
16075;SDS011;8142;48.242;11.644;2023-08-06T01:42:47;3.40;;;2.63;;
16075;SDS011;8142;48.242;11.644;2023-08-06T01:45:13;3.57;;;3.10;;
16075;SDS011;8142;48.242;11.644;2023-08-06T01:47:39;3.70;;;3.10;;
16075;SDS011;8142;48.242;11.644;2023-08-06T01:50:05;4.07;;;3.33;;
16075;SDS011;8142;48.242;11.644;2023-08-06T01:52:31;3.50;;;3.20;;
16075;SDS011;8142;48.242;11.644;2023-08-06T01:54:57;4.07;;;3.50;;
16075;SDS011;8142;48.242;11.644;2023-08-06T01:57:23;4.47;;;3.03;;
16075;SDS011;8142;48.242;11.644;2023-08-06T01:59:49;4.93;;;3.00;;
16075;SDS011;8142;48.242;11.644;2023-08-06T02:02:15;5.43;;;3.50;;
16075;SDS011;8142;48.242;11.644;2023-08-06T02:04:40;4.87;;;3.30;;
16075;SDS011;8142;48.242;11.644;2023-08-06T02:07:06;4.47;;;3.40;;
16075;SDS011;8142;48.242;11.644;2023-08-06T02:09:32;3.47;;;3.17;;
16075;SDS011;8142;48.242;11.644;2023-08-06T02:11:58;5.07;;;3.60;;
16075;SDS011;8142;48.242;11.644;2023-08-06T02:14:24;3.67;;;3.03;;
16075;SDS011;8142;48.242;11.644;2023-08-06T02:16:50;4.30;;;3.30;;
16075;SDS011;8142;48.242;11.644;2023-08-06T02:19:16;3.63;;;3.20;;
16075;SDS011;8142;48.242;11.644;2023-08-06T02:21:41;5.07;;;3.40;;
16075;SDS011;8142;48.242;11.644;2023-08-06T02:24:07;3.40;;;3.10;;
16075;SDS011;8142;48.242;11.644;2023-08-06T02:26:33;3.57;;;3.27;;
16075;SDS011;8142;48.242;11.644;2023-08-06T02:28:59;3.73;;;3.30;;
16075;SDS011;8142;48.242;11.644;2023-08-06T02:31:25;3.73;;;3.20;;
16075;SDS011;8142;48.242;11.644;2023-08-06T02:33:50;4.60;;;2.97;;
16075;SDS011;8142;48.242;11.644;2023-08-06T02:36:17;5.63;;;3.33;;
16075;SDS011;8142;48.242;11.644;2023-08-06T02:38:46;5.70;;;3.20;;
16075;SDS011;8142;48.242;11.644;2023-08-06T02:41:12;3.50;;;3.20;;
16075;SDS011;8142;48.242;11.644;2023-08-06T02:43:38;3.67;;;3.10;;
16075;SDS011;8142;48.242;11.644;2023-08-06T02:46:03;3.57;;;3.17;;
16075;SDS011;8142;48.242;11.644;2023-08-06T02:48:29;3.30;;;3.00;;
16075;SDS011;8142;48.242;11.644;2023-08-06T02:50:58;3.40;;;3.10;;
16075;SDS011;8142;48.242;11.644;2023-08-06T02:53:24;3.10;;;2.90;;
16075;SDS011;8142;48.242;11.644;2023-08-06T02:55:50;3.53;;;3.17;;
16075;SDS011;8142;48.242;11.644;2023-08-06T02:58:17;5.00;;;3.10;;
16075;SDS011;8142;48.242;11.644;2023-08-06T03:00:58;2.80;;;2.60;;
16075;SDS011;8142;48.242;11.644;2023-08-06T03:03:29;3.20;;;2.90;;
16075;SDS011;8142;48.242;11.644;2023-08-06T03:05:55;3.50;;;3.20;;
16075;SDS011;8142;48.242;11.644;2023-08-06T03:08:21;3.13;;;2.83;;
16075;SDS011;8142;48.242;11.644;2023-08-06T03:10:48;3.60;;;2.90;;
16075;SDS011;8142;48.242;11.644;2023-08-06T03:13:15;3.67;;;3.23;;
16075;SDS011;8142;48.242;11.644;2023-08-06T03:15:51;3.83;;;3.00;;
16075;SDS011;8142;48.242;11.644;2023-08-06T03:18:18;4.07;;;3.00;;
16075;SDS011;8142;48.242;11.644;2023-08-06T03:20:44;3.50;;;3.20;;
16075;SDS011;8142;48.242;11.644;2023-08-06T03:23:10;3.30;;;3.00;;
16075;SDS011;8142;48.242;11.644;2023-08-06T03:25:36;3.30;;;3.00;;
16075;SDS011;8142;48.242;11.644;2023-08-06T03:28:02;4.33;;;3.27;;
16075;SDS011;8142;48.242;11.644;2023-08-06T03:30:28;3.17;;;2.90;;
16075;SDS011;8142;48.242;11.644;2023-08-06T03:32:53;3.13;;;2.83;;
16075;SDS011;8142;48.242;11.644;2023-08-06T03:35:19;3.90;;;2.80;;
16075;SDS011;8142;48.242;11.644;2023-08-06T03:37:45;3.50;;;2.93;;
16075;SDS011;8142;48.242;11.644;2023-08-06T03:40:11;4.13;;;2.60;;
16075;SDS011;8142;48.242;11.644;2023-08-06T03:42:37;2.63;;;2.43;;
16075;SDS011;8142;48.242;11.644;2023-08-06T03:45:03;3.47;;;2.70;;
16075;SDS011;8142;48.242;11.644;2023-08-06T03:47:29;3.53;;;2.60;;
16075;SDS011;8142;48.242;11.644;2023-08-06T03:49:55;2.80;;;2.60;;
16075;SDS011;8142;48.242;11.644;2023-08-06T03:52:21;3.17;;;2.80;;
16075;SDS011;8142;48.242;11.644;2023-08-06T03:54:46;4.57;;;2.70;;
16075;SDS011;8142;48.242;11.644;2023-08-06T03:57:12;3.53;;;2.87;;
16075;SDS011;8142;48.242;11.644;2023-08-06T03:59:38;2.67;;;2.47;;
16075;SDS011;8142;48.242;11.644;2023-08-06T04:02:04;3.10;;;2.57;;
16075;SDS011;8142;48.242;11.644;2023-08-06T04:04:30;3.20;;;2.70;;
16075;SDS011;8142;48.242;11.644;2023-08-06T04:06:56;2.77;;;2.57;;
16075;SDS011;8142;48.242;11.644;2023-08-06T04:09:21;2.63;;;2.40;;
16075;SDS011;8142;48.242;11.644;2023-08-06T04:11:47;3.87;;;2.53;;
16075;SDS011;8142;48.242;11.644;2023-08-06T04:14:13;2.87;;;2.60;;
16075;SDS011;8142;48.242;11.644;2023-08-06T04:16:39;2.87;;;2.30;;
16075;SDS011;8142;48.242;11.644;2023-08-06T04:19:05;2.90;;;2.60;;
16075;SDS011;8142;48.242;11.644;2023-08-06T04:21:30;2.87;;;2.50;;
16075;SDS011;8142;48.242;11.644;2023-08-06T04:23:56;3.33;;;2.33;;
16075;SDS011;8142;48.242;11.644;2023-08-06T04:26:22;2.40;;;2.20;;
16075;SDS011;8142;48.242;11.644;2023-08-06T04:28:48;2.93;;;2.33;;
16075;SDS011;8142;48.242;11.644;2023-08-06T04:31:14;2.93;;;2.60;;
16075;SDS011;8142;48.242;11.644;2023-08-06T04:33:40;2.83;;;2.50;;
16075;SDS011;8142;48.242;11.644;2023-08-06T04:36:06;2.33;;;2.13;;
16075;SDS011;8142;48.242;11.644;2023-08-06T04:38:32;2.37;;;2.17;;
16075;SDS011;8142;48.242;11.644;2023-08-06T04:40:58;3.30;;;2.50;;
16075;SDS011;8142;48.242;11.644;2023-08-06T04:43:23;2.60;;;1.97;;
16075;SDS011;8142;48.242;11.644;2023-08-06T04:45:50;2.27;;;2.10;;
16075;SDS011;8142;48.242;11.644;2023-08-06T04:48:18;2.27;;;2.07;;
16075;SDS011;8142;48.242;11.644;2023-08-06T04:50:47;2.90;;;2.37;;
16075;SDS011;8142;48.242;11.644;2023-08-06T04:53:14;4.13;;;2.07;;
16075;SDS011;8142;48.242;11.644;2023-08-06T04:55:41;3.37;;;2.30;;
16075;SDS011;8142;48.242;11.644;2023-08-06T04:58:08;3.27;;;2.10;;
16075;SDS011;8142;48.242;11.644;2023-08-06T05:00:35;2.23;;;2.03;;
16075;SDS011;8142;48.242;11.644;2023-08-06T05:03:01;2.37;;;2.13;;
16075;SDS011;8142;48.242;11.644;2023-08-06T05:05:27;3.20;;;2.20;;
16075;SDS011;8142;48.242;11.644;2023-08-06T05:07:54;4.93;;;2.00;;
16075;SDS011;8142;48.242;11.644;2023-08-06T05:10:24;2.30;;;1.83;;
16075;SDS011;8142;48.242;11.644;2023-08-06T05:12:51;3.23;;;2.17;;
16075;SDS011;8142;48.242;11.644;2023-08-06T05:15:18;2.50;;;2.27;;
16075;SDS011;8142;48.242;11.644;2023-08-06T05:17:44;2.27;;;1.90;;
16075;SDS011;8142;48.242;11.644;2023-08-06T05:20:10;2.63;;;1.87;;
16075;SDS011;8142;48.242;11.644;2023-08-06T05:22:39;2.50;;;2.07;;
16075;SDS011;8142;48.242;11.644;2023-08-06T05:25:05;2.50;;;1.97;;
16075;SDS011;8142;48.242;11.644;2023-08-06T05:27:31;2.27;;;2.00;;
16075;SDS011;8142;48.242;11.644;2023-08-06T05:29:57;2.70;;;2.17;;
16075;SDS011;8142;48.242;11.644;2023-08-06T05:32:23;2.20;;;2.00;;
16075;SDS011;8142;48.242;11.644;2023-08-06T05:34:49;3.03;;;2.33;;
16075;SDS011;8142;48.242;11.644;2023-08-06T05:37:15;2.33;;;1.97;;
16075;SDS011;8142;48.242;11.644;2023-08-06T05:39:41;2.20;;;2.00;;
16075;SDS011;8142;48.242;11.644;2023-08-06T05:42:07;1.97;;;1.70;;
16075;SDS011;8142;48.242;11.644;2023-08-06T05:44:32;2.20;;;2.00;;
16075;SDS011;8142;48.242;11.644;2023-08-06T05:46:58;2.63;;;2.00;;
16075;SDS011;8142;48.242;11.644;2023-08-06T05:49:24;2.47;;;1.83;;
16075;SDS011;8142;48.242;11.644;2023-08-06T05:51:50;2.60;;;2.20;;
16075;SDS011;8142;48.242;11.644;2023-08-06T05:54:18;2.80;;;1.90;;
16075;SDS011;8142;48.242;11.644;2023-08-06T05:56:44;2.20;;;1.90;;
16075;SDS011;8142;48.242;11.644;2023-08-06T05:59:10;2.47;;;1.90;;
16075;SDS011;8142;48.242;11.644;2023-08-06T06:01:36;2.60;;;1.80;;
16075;SDS011;8142;48.242;11.644;2023-08-06T06:04:02;3.00;;;2.23;;
16075;SDS011;8142;48.242;11.644;2023-08-06T06:06:28;2.53;;;2.13;;
16075;SDS011;8142;48.242;11.644;2023-08-06T06:08:54;4.50;;;2.00;;
16075;SDS011;8142;48.242;11.644;2023-08-06T06:11:20;2.00;;;1.83;;
16075;SDS011;8142;48.242;11.644;2023-08-06T06:13:49;2.30;;;2.10;;
16075;SDS011;8142;48.242;11.644;2023-08-06T06:16:16;2.93;;;2.17;;
16075;SDS011;8142;48.242;11.644;2023-08-06T06:18:41;2.67;;;1.80;;
16075;SDS011;8142;48.242;11.644;2023-08-06T06:21:07;2.40;;;1.80;;
16075;SDS011;8142;48.242;11.644;2023-08-06T06:23:33;2.33;;;2.00;;
16075;SDS011;8142;48.242;11.644;2023-08-06T06:25:59;2.27;;;1.83;;
16075;SDS011;8142;48.242;11.644;2023-08-06T06:28:25;2.67;;;1.80;;
16075;SDS011;8142;48.242;11.644;2023-08-06T06:30:51;2.23;;;1.80;;
16075;SDS011;8142;48.242;11.644;2023-08-06T06:33:17;2.57;;;1.77;;
16075;SDS011;8142;48.242;11.644;2023-08-06T06:35:43;2.10;;;1.90;;
16075;SDS011;8142;48.242;11.644;2023-08-06T06:38:08;1.83;;;1.70;;
16075;SDS011;8142;48.242;11.644;2023-08-06T06:40:34;1.97;;;1.73;;
16075;SDS011;8142;48.242;11.644;2023-08-06T06:43:00;1.80;;;1.70;;
16075;SDS011;8142;48.242;11.644;2023-08-06T06:45:26;1.83;;;1.73;;
16075;SDS011;8142;48.242;11.644;2023-08-06T06:47:52;1.90;;;1.70;;
16075;SDS011;8142;48.242;11.644;2023-08-06T06:50:17;2.20;;;2.00;;
16075;SDS011;8142;48.242;11.644;2023-08-06T06:52:43;2.23;;;1.63;;
16075;SDS011;8142;48.242;11.644;2023-08-06T06:55:09;2.10;;;1.90;;
16075;SDS011;8142;48.242;11.644;2023-08-06T06:57:35;2.37;;;1.70;;
16075;SDS011;8142;48.242;11.644;2023-08-06T07:00:01;2.00;;;1.70;;
16075;SDS011;8142;48.242;11.644;2023-08-06T07:02:27;2.87;;;1.90;;
16075;SDS011;8142;48.242;11.644;2023-08-06T07:04:53;2.80;;;1.73;;
16075;SDS011;8142;48.242;11.644;2023-08-06T07:07:19;3.10;;;1.60;;
16075;SDS011;8142;48.242;11.644;2023-08-06T07:09:45;1.50;;;1.40;;
16075;SDS011;8142;48.242;11.644;2023-08-06T07:12:10;1.80;;;1.50;;
16075;SDS011;8142;48.242;11.644;2023-08-06T07:14:39;2.20;;;1.70;;
16075;SDS011;8142;48.242;11.644;2023-08-06T07:17:05;1.57;;;1.47;;
16075;SDS011;8142;48.242;11.644;2023-08-06T07:19:31;3.43;;;1.40;;
16075;SDS011;8142;48.242;11.644;2023-08-06T07:21:57;2.03;;;1.23;;
16075;SDS011;8142;48.242;11.644;2023-08-06T07:24:22;1.50;;;1.40;;
16075;SDS011;8142;48.242;11.644;2023-08-06T07:26:48;1.53;;;1.40;;
16075;SDS011;8142;48.242;11.644;2023-08-06T07:29:14;1.40;;;1.20;;
16075;SDS011;8142;48.242;11.644;2023-08-06T07:31:45;1.20;;;0.93;;
16075;SDS011;8142;48.242;11.644;2023-08-06T07:34:11;1.07;;;0.97;;
16075;SDS011;8142;48.242;11.644;2023-08-06T07:36:40;1.10;;;1.00;;
16075;SDS011;8142;48.242;11.644;2023-08-06T07:39:08;2.27;;;1.00;;
16075;SDS011;8142;48.242;11.644;2023-08-06T07:41:34;1.10;;;0.90;;
16075;SDS011;8142;48.242;11.644;2023-08-06T07:44:00;1.60;;;0.60;;
16075;SDS011;8142;48.242;11.644;2023-08-06T07:46:27;0.80;;;0.80;;
16075;SDS011;8142;48.242;11.644;2023-08-06T07:48:52;1.13;;;0.83;;
16075;SDS011;8142;48.242;11.644;2023-08-06T07:51:18;0.70;;;0.70;;
16075;SDS011;8142;48.242;11.644;2023-08-06T07:53:44;0.80;;;0.80;;
16075;SDS011;8142;48.242;11.644;2023-08-06T07:56:10;0.93;;;0.93;;
16075;SDS011;8142;48.242;11.644;2023-08-06T07:58:39;1.47;;;1.00;;
16075;SDS011;8142;48.242;11.644;2023-08-06T08:01:05;1.47;;;1.00;;
16075;SDS011;8142;48.242;11.644;2023-08-06T08:03:31;0.90;;;0.90;;
16075;SDS011;8142;48.242;11.644;2023-08-06T08:05:57;4.30;;;1.10;;
16075;SDS011;8142;48.242;11.644;2023-08-06T08:08:23;1.27;;;1.00;;
16075;SDS011;8142;48.242;11.644;2023-08-06T08:10:49;0.80;;;0.80;;
16075;SDS011;8142;48.242;11.644;2023-08-06T08:13:15;2.33;;;1.07;;
16075;SDS011;8142;48.242;11.644;2023-08-06T08:15:41;1.60;;;0.90;;
16075;SDS011;8142;48.242;11.644;2023-08-06T08:18:07;1.97;;;0.80;;
16075;SDS011;8142;48.242;11.644;2023-08-06T08:20:33;1.00;;;0.80;;
16075;SDS011;8142;48.242;11.644;2023-08-06T08:23:01;2.10;;;1.00;;
16075;SDS011;8142;48.242;11.644;2023-08-06T08:25:27;1.87;;;0.97;;
16075;SDS011;8142;48.242;11.644;2023-08-06T08:27:54;1.20;;;0.90;;
16075;SDS011;8142;48.242;11.644;2023-08-06T08:30:20;0.80;;;0.80;;
16075;SDS011;8142;48.242;11.644;2023-08-06T08:32:47;2.13;;;0.90;;
16075;SDS011;8142;48.242;11.644;2023-08-06T08:35:13;2.00;;;0.90;;
16075;SDS011;8142;48.242;11.644;2023-08-06T08:37:41;1.70;;;0.80;;
16075;SDS011;8142;48.242;11.644;2023-08-06T08:40:08;2.37;;;0.90;;
16075;SDS011;8142;48.242;11.644;2023-08-06T08:42:35;1.97;;;0.90;;
16075;SDS011;8142;48.242;11.644;2023-08-06T08:45:02;1.57;;;0.90;;
16075;SDS011;8142;48.242;11.644;2023-08-06T08:47:30;1.47;;;0.80;;
16075;SDS011;8142;48.242;11.644;2023-08-06T08:49:56;1.17;;;1.00;;
16075;SDS011;8142;48.242;11.644;2023-08-06T08:52:23;1.87;;;0.70;;
16075;SDS011;8142;48.242;11.644;2023-08-06T08:54:50;1.17;;;0.80;;
16075;SDS011;8142;48.242;11.644;2023-08-06T08:57:18;1.17;;;0.87;;
16075;SDS011;8142;48.242;11.644;2023-08-06T08:59:45;3.37;;;0.90;;
16075;SDS011;8142;48.242;11.644;2023-08-06T09:02:12;1.73;;;1.00;;
16075;SDS011;8142;48.242;11.644;2023-08-06T09:04:40;0.53;;;0.53;;
16075;SDS011;8142;48.242;11.644;2023-08-06T09:07:07;0.87;;;0.80;;
16075;SDS011;8142;48.242;11.644;2023-08-06T09:09:34;1.63;;;0.80;;
16075;SDS011;8142;48.242;11.644;2023-08-06T09:12:05;0.77;;;0.60;;
16075;SDS011;8142;48.242;11.644;2023-08-06T09:14:40;2.13;;;0.63;;
16075;SDS011;8142;48.242;11.644;2023-08-06T09:17:06;1.47;;;0.50;;
16075;SDS011;8142;48.242;11.644;2023-08-06T09:19:32;0.60;;;0.60;;
16075;SDS011;8142;48.242;11.644;2023-08-06T09:21:58;1.40;;;0.60;;
16075;SDS011;8142;48.242;11.644;2023-08-06T09:24:24;1.83;;;0.60;;
16075;SDS011;8142;48.242;11.644;2023-08-06T09:26:52;0.77;;;0.50;;
16075;SDS011;8142;48.242;11.644;2023-08-06T09:29:17;0.50;;;0.50;;
16075;SDS011;8142;48.242;11.644;2023-08-06T09:34:11;0.77;;;0.50;;
16075;SDS011;8142;48.242;11.644;2023-08-06T09:39:14;0.83;;;0.80;;
16075;SDS011;8142;48.242;11.644;2023-08-06T09:41:44;0.77;;;0.60;;
16075;SDS011;8142;48.242;11.644;2023-08-06T09:44:18;1.60;;;0.60;;
16075;SDS011;8142;48.242;11.644;2023-08-06T09:46:48;0.50;;;0.50;;
16075;SDS011;8142;48.242;11.644;2023-08-06T09:49:14;0.67;;;0.40;;
16075;SDS011;8142;48.242;11.644;2023-08-06T09:51:41;1.50;;;0.60;;
16075;SDS011;8142;48.242;11.644;2023-08-06T09:54:07;0.30;;;0.30;;
16075;SDS011;8142;48.242;11.644;2023-08-06T09:56:37;1.70;;;0.40;;
16075;SDS011;8142;48.242;11.644;2023-08-06T09:59:04;0.97;;;0.33;;
16075;SDS011;8142;48.242;11.644;2023-08-06T10:01:32;0.50;;;0.50;;
16075;SDS011;8142;48.242;11.644;2023-08-06T10:03:59;0.40;;;0.40;;
16075;SDS011;8142;48.242;11.644;2023-08-06T10:06:26;1.47;;;0.50;;
16075;SDS011;8142;48.242;11.644;2023-08-06T10:08:54;0.43;;;0.40;;
16075;SDS011;8142;48.242;11.644;2023-08-06T10:11:23;0.40;;;0.20;;
16075;SDS011;8142;48.242;11.644;2023-08-06T10:13:54;0.70;;;0.40;;
16075;SDS011;8142;48.242;11.644;2023-08-06T10:16:24;0.77;;;0.20;;
16075;SDS011;8142;48.242;11.644;2023-08-06T10:18:50;0.60;;;0.40;;
16075;SDS011;8142;48.242;11.644;2023-08-06T10:21:17;0.93;;;0.20;;
16075;SDS011;8142;48.242;11.644;2023-08-06T10:23:42;0.50;;;0.30;;
16075;SDS011;8142;48.242;11.644;2023-08-06T10:26:08;1.80;;;0.30;;
16075;SDS011;8142;48.242;11.644;2023-08-06T10:28:35;1.40;;;0.20;;
16075;SDS011;8142;48.242;11.644;2023-08-06T10:31:05;0.20;;;0.20;;
16075;SDS011;8142;48.242;11.644;2023-08-06T10:33:41;1.53;;;0.40;;
16075;SDS011;8142;48.242;11.644;2023-08-06T10:36:08;2.10;;;0.27;;
16075;SDS011;8142;48.242;11.644;2023-08-06T10:38:35;0.73;;;0.30;;
16075;SDS011;8142;48.242;11.644;2023-08-06T10:41:08;1.03;;;0.20;;
16075;SDS011;8142;48.242;11.644;2023-08-06T10:43:48;0.30;;;0.30;;
16075;SDS011;8142;48.242;11.644;2023-08-06T10:46:27;0.47;;;0.40;;
16075;SDS011;8142;48.242;11.644;2023-08-06T10:48:53;0.53;;;0.43;;
16075;SDS011;8142;48.242;11.644;2023-08-06T10:51:19;0.60;;;0.40;;
16075;SDS011;8142;48.242;11.644;2023-08-06T10:53:46;0.73;;;0.30;;
16075;SDS011;8142;48.242;11.644;2023-08-06T10:56:17;0.87;;;0.30;;
16075;SDS011;8142;48.242;11.644;2023-08-06T10:58:52;1.00;;;0.40;;
16075;SDS011;8142;48.242;11.644;2023-08-06T11:01:19;0.67;;;0.27;;
16075;SDS011;8142;48.242;11.644;2023-08-06T11:03:47;2.30;;;0.40;;
16075;SDS011;8142;48.242;11.644;2023-08-06T11:06:18;0.60;;;0.17;;
16075;SDS011;8142;48.242;11.644;2023-08-06T11:08:52;0.63;;;0.30;;
16075;SDS011;8142;48.242;11.644;2023-08-06T11:11:19;0.10;;;0.10;;
16075;SDS011;8142;48.242;11.644;2023-08-06T11:13:46;0.63;;;0.30;;
16075;SDS011;8142;48.242;11.644;2023-08-06T11:16:16;0.20;;;0.20;;
16075;SDS011;8142;48.242;11.644;2023-08-06T11:18:44;0.70;;;0.20;;
16075;SDS011;8142;48.242;11.644;2023-08-06T11:21:10;0.43;;;0.30;;
16075;SDS011;8142;48.242;11.644;2023-08-06T11:23:37;1.13;;;0.10;;
16075;SDS011;8142;48.242;11.644;2023-08-06T11:26:04;1.83;;;0.17;;
16075;SDS011;8142;48.242;11.644;2023-08-06T11:28:30;1.20;;;0.30;;
16075;SDS011;8142;48.242;11.644;2023-08-06T11:30:56;0.40;;;0.20;;
16075;SDS011;8142;48.242;11.644;2023-08-06T11:33:26;0.10;;;0.10;;
16075;SDS011;8142;48.242;11.644;2023-08-06T11:35:53;0.37;;;0.10;;
16075;SDS011;8142;48.242;11.644;2023-08-06T11:38:21;0.20;;;0.20;;
16075;SDS011;8142;48.242;11.644;2023-08-06T11:40:49;0.33;;;0.20;;
16075;SDS011;8142;48.242;11.644;2023-08-06T11:43:17;0.23;;;0.20;;
16075;SDS011;8142;48.242;11.644;2023-08-06T11:45:44;2.73;;;0.37;;
16075;SDS011;8142;48.242;11.644;2023-08-06T11:48:10;1.03;;;0.30;;
16075;SDS011;8142;48.242;11.644;2023-08-06T11:50:39;0.10;;;0.10;;
16075;SDS011;8142;48.242;11.644;2023-08-06T11:53:05;0.40;;;0.20;;
16075;SDS011;8142;48.242;11.644;2023-08-06T11:55:31;0.40;;;0.20;;
16075;SDS011;8142;48.242;11.644;2023-08-06T11:57:57;0.30;;;0.27;;
16075;SDS011;8142;48.242;11.644;2023-08-06T12:00:24;0.40;;;0.10;;
16075;SDS011;8142;48.242;11.644;2023-08-06T12:02:51;1.03;;;0.20;;
16075;SDS011;8142;48.242;11.644;2023-08-06T12:05:20;0.20;;;0.20;;
16075;SDS011;8142;48.242;11.644;2023-08-06T12:07:51;0.30;;;0.30;;
16075;SDS011;8142;48.242;11.644;2023-08-06T12:10:18;0.20;;;0.20;;
16075;SDS011;8142;48.242;11.644;2023-08-06T12:12:45;1.30;;;0.10;;
16075;SDS011;8142;48.242;11.644;2023-08-06T12:15:12;0.20;;;0.20;;
16075;SDS011;8142;48.242;11.644;2023-08-06T12:17:38;0.20;;;0.20;;
16075;SDS011;8142;48.242;11.644;2023-08-06T12:20:04;0.50;;;0.10;;
16075;SDS011;8142;48.242;11.644;2023-08-06T12:22:32;0.27;;;0.27;;
16075;SDS011;8142;48.242;11.644;2023-08-06T12:25:04;0.20;;;0.20;;
16075;SDS011;8142;48.242;11.644;2023-08-06T12:27:45;0.20;;;0.20;;
16075;SDS011;8142;48.242;11.644;2023-08-06T12:30:12;0.23;;;0.23;;
16075;SDS011;8142;48.242;11.644;2023-08-06T12:32:38;0.37;;;0.17;;
16075;SDS011;8142;48.242;11.644;2023-08-06T12:35:04;0.10;;;0.10;;
16075;SDS011;8142;48.242;11.644;2023-08-06T12:37:32;0.20;;;0.20;;
16075;SDS011;8142;48.242;11.644;2023-08-06T12:39:58;0.10;;;0.10;;
16075;SDS011;8142;48.242;11.644;2023-08-06T12:42:24;0.10;;;0.10;;
16075;SDS011;8142;48.242;11.644;2023-08-06T12:44:50;0.40;;;0.10;;
16075;SDS011;8142;48.242;11.644;2023-08-06T12:47:17;1.37;;;0.20;;
16075;SDS011;8142;48.242;11.644;2023-08-06T12:49:43;0.13;;;0.13;;
16075;SDS011;8142;48.242;11.644;2023-08-06T12:52:09;0.67;;;0.33;;
16075;SDS011;8142;48.242;11.644;2023-08-06T12:54:37;0.20;;;0.20;;
16075;SDS011;8142;48.242;11.644;2023-08-06T12:57:06;1.63;;;0.40;;
16075;SDS011;8142;48.242;11.644;2023-08-06T12:59:32;0.10;;;0.10;;
16075;SDS011;8142;48.242;11.644;2023-08-06T13:01:59;1.83;;;0.23;;
16075;SDS011;8142;48.242;11.644;2023-08-06T13:04:25;0.60;;;0.10;;
16075;SDS011;8142;48.242;11.644;2023-08-06T13:06:52;0.20;;;0.10;;
16075;SDS011;8142;48.242;11.644;2023-08-06T13:09:18;0.00;;;0.00;;
16075;SDS011;8142;48.242;11.644;2023-08-06T13:11:44;0.20;;;0.13;;
16075;SDS011;8142;48.242;11.644;2023-08-06T13:14:12;0.10;;;0.10;;
16075;SDS011;8142;48.242;11.644;2023-08-06T13:16:40;0.13;;;0.13;;
16075;SDS011;8142;48.242;11.644;2023-08-06T13:19:06;0.13;;;0.13;;
16075;SDS011;8142;48.242;11.644;2023-08-06T13:21:33;0.23;;;0.13;;
16075;SDS011;8142;48.242;11.644;2023-08-06T13:24:03;0.30;;;0.20;;
16075;SDS011;8142;48.242;11.644;2023-08-06T13:26:29;1.60;;;0.23;;
16075;SDS011;8142;48.242;11.644;2023-08-06T13:28:58;0.17;;;0.13;;
16075;SDS011;8142;48.242;11.644;2023-08-06T13:31:26;1.27;;;0.30;;
16075;SDS011;8142;48.242;11.644;2023-08-06T13:33:53;1.03;;;0.17;;
16075;SDS011;8142;48.242;11.644;2023-08-06T13:36:21;0.30;;;0.20;;
16075;SDS011;8142;48.242;11.644;2023-08-06T13:38:48;0.10;;;0.10;;
16075;SDS011;8142;48.242;11.644;2023-08-06T13:41:14;0.30;;;0.30;;
16075;SDS011;8142;48.242;11.644;2023-08-06T13:43:40;0.53;;;0.20;;
16075;SDS011;8142;48.242;11.644;2023-08-06T13:46:06;0.10;;;0.10;;
16075;SDS011;8142;48.242;11.644;2023-08-06T13:48:32;0.30;;;0.30;;
16075;SDS011;8142;48.242;11.644;2023-08-06T13:50:58;1.10;;;0.20;;
16075;SDS011;8142;48.242;11.644;2023-08-06T13:53:23;0.30;;;0.30;;
16075;SDS011;8142;48.242;11.644;2023-08-06T13:55:55;0.57;;;0.30;;
16075;SDS011;8142;48.242;11.644;2023-08-06T13:58:22;0.53;;;0.20;;
16075;SDS011;8142;48.242;11.644;2023-08-06T14:00:48;0.13;;;0.13;;
16075;SDS011;8142;48.242;11.644;2023-08-06T14:03:14;0.27;;;0.27;;
16075;SDS011;8142;48.242;11.644;2023-08-06T14:05:41;1.30;;;0.20;;
16075;SDS011;8142;48.242;11.644;2023-08-06T14:08:07;0.20;;;0.20;;
16075;SDS011;8142;48.242;11.644;2023-08-06T14:10:32;1.90;;;0.30;;
16075;SDS011;8142;48.242;11.644;2023-08-06T14:12:58;0.47;;;0.43;;
16075;SDS011;8142;48.242;11.644;2023-08-06T14:15:24;0.20;;;0.20;;
16075;SDS011;8142;48.242;11.644;2023-08-06T14:17:50;0.10;;;0.10;;
16075;SDS011;8142;48.242;11.644;2023-08-06T14:20:16;0.20;;;0.20;;
16075;SDS011;8142;48.242;11.644;2023-08-06T14:22:41;0.10;;;0.10;;
16075;SDS011;8142;48.242;11.644;2023-08-06T14:25:07;0.30;;;0.30;;
16075;SDS011;8142;48.242;11.644;2023-08-06T14:27:33;0.40;;;0.40;;
16075;SDS011;8142;48.242;11.644;2023-08-06T14:30:00;0.20;;;0.20;;
16075;SDS011;8142;48.242;11.644;2023-08-06T14:32:28;1.13;;;0.70;;
16075;SDS011;8142;48.242;11.644;2023-08-06T14:34:54;0.20;;;0.20;;
16075;SDS011;8142;48.242;11.644;2023-08-06T14:37:20;0.40;;;0.40;;
16075;SDS011;8142;48.242;11.644;2023-08-06T14:39:46;0.20;;;0.20;;
16075;SDS011;8142;48.242;11.644;2023-08-06T14:42:12;0.20;;;0.20;;
16075;SDS011;8142;48.242;11.644;2023-08-06T14:44:37;0.30;;;0.20;;
16075;SDS011;8142;48.242;11.644;2023-08-06T14:47:03;0.97;;;0.40;;
16075;SDS011;8142;48.242;11.644;2023-08-06T14:49:29;0.87;;;0.40;;
16075;SDS011;8142;48.242;11.644;2023-08-06T14:51:55;0.20;;;0.20;;
16075;SDS011;8142;48.242;11.644;2023-08-06T14:54:24;1.93;;;0.53;;
16075;SDS011;8142;48.242;11.644;2023-08-06T14:56:50;2.73;;;0.80;;